Time;durP1;ratioP1;P1;durP2;ratioP2;P2;SDS_P1;SDS_P2;PMS_P1;PMS_P2;Temp;Humidity;BMP_temperature;BMP_pressure;BME280_temperature;BME280_humidity;BME280_pressure;Samples;Min_cycle;Max_cycle;Signal;HPM_P1;HPM_P2
2023/10/03 00:02:27;;;;;;;4.25;3.63;;;16.70;1.00;;;;;;5087124;28;20044;-78
2023/10/03 00:04:53;;;;;;;2.25;1.88;;;16.70;1.00;;;;;;5098282;28;20051;-78
2023/10/03 00:07:19;;;;;;;2.20;2.00;;;16.70;1.00;;;;;;5107725;28;20508;-80
2023/10/03 00:09:45;;;;;;;3.45;2.25;;;16.70;1.00;;;;;;5108657;28;20053;-79
2023/10/03 00:12:11;;;;;;;5.60;2.00;;;16.70;99.90;;;;;;5108400;28;20052;-79
2023/10/03 00:14:37;;;;;;;2.72;2.22;;;16.70;99.90;;;;;;5115873;28;20065;-79
2023/10/03 00:17:03;;;;;;;4.30;3.13;;;16.60;99.90;;;;;;5103852;28;20040;-79
2023/10/03 00:19:30;;;;;;;5.70;3.00;;;16.60;99.90;;;;;;5108766;28;20079;-78
2023/10/03 00:21:55;;;;;;;4.53;3.30;;;16.50;1.00;;;;;;5104712;28;20106;-78
2023/10/03 00:24:21;;;;;;;38.03;6.55;;;16.60;1.00;;;;;;5090915;28;20051;-78
2023/10/03 00:26:46;;;;;;;6.13;3.33;;;16.60;1.00;;;;;;5101320;28;20044;-78
2023/10/03 00:29:21;;;;;;;6.82;2.33;;;16.60;99.90;;;;;;5102945;28;20374;-78
2023/10/03 00:31:46;;;;;;;3.70;1.52;;;16.60;99.90;;;;;;5104200;28;20085;-78
2023/10/03 00:34:13;;;;;;;1.48;1.27;;;16.60;99.90;;;;;;5103211;28;20120;-78
2023/10/03 00:36:38;;;;;;;2.83;1.38;;;16.50;99.90;;;;;;5112106;28;20077;-78
2023/10/03 00:39:06;;;;;;;2.95;1.48;;;16.50;99.90;;;;;;5105025;28;20121;-79
2023/10/03 00:41:34;;;;;;;4.68;1.35;;;16.50;99.90;;;;;;5104091;28;20044;-78
2023/10/03 00:44:04;;;;;;;6.78;2.55;;;16.50;99.90;;;;;;5104703;28;20500;-78
2023/10/03 00:46:31;;;;;;;3.97;2.55;;;16.40;99.90;;;;;;5102541;28;20118;-78
2023/10/03 00:48:57;;;;;;;9.35;1.65;;;16.50;99.90;;;;;;5101335;28;20044;-78
2023/10/03 00:51:25;;;;;;;2.15;1.65;;;16.50;99.90;;;;;;5105149;28;20044;-78
2023/10/03 00:53:51;;;;;;;4.28;2.60;;;16.50;99.90;;;;;;5101896;28;20036;-78
2023/10/03 00:56:19;;;;;;;2.97;2.00;;;16.40;99.90;;;;;;5106709;28;20123;-78
2023/10/03 00:58:44;;;;;;;6.07;3.78;;;16.40;99.90;;;;;;5104395;28;20048;-78
2023/10/03 01:01:11;;;;;;;7.70;2.65;;;16.50;99.90;;;;;;5104556;28;20093;-77
2023/10/03 01:03:38;;;;;;;4.32;2.65;;;16.40;99.90;;;;;;5114612;28;20373;-77
2023/10/03 01:06:09;;;;;;;8.85;3.80;;;16.40;99.90;;;;;;5107898;28;20035;-78
2023/10/03 01:08:55;;;;;;;7.43;2.72;;;16.60;99.90;;;;;;5107288;28;20054;-78
2023/10/03 01:11:23;;;;;;;6.55;2.70;;;16.50;99.90;;;;;;5103769;28;20048;-78
2023/10/03 01:13:54;;;;;;;3.53;2.45;;;16.50;99.90;;;;;;5105516;28;20052;-78
2023/10/03 01:16:33;;;;;;;6.45;3.33;;;16.70;99.90;;;;;;5107808;28;20092;-78
2023/10/03 01:19:07;;;;;;;6.32;3.47;;;16.80;1.00;;;;;;5105663;28;20497;-78
2023/10/03 01:21:34;;;;;;;5.15;2.90;;;16.70;99.90;;;;;;5104548;28;20495;-78
2023/10/03 01:24:00;;;;;;;7.63;2.15;;;16.80;99.90;;;;;;5104926;28;20076;-77
2023/10/03 01:26:26;;;;;;;2.78;0.93;;;16.80;99.90;;;;;;5106689;28;20039;-79
2023/10/03 01:28:51;;;;;;;6.78;2.00;;;16.80;86.40;;;;;;5099461;28;20093;-77
2023/10/03 01:31:17;;;;;;;2.85;1.55;;;16.70;70.00;;;;;;5107177;28;20485;-78
2023/10/03 01:33:43;;;;;;;15.20;3.25;;;16.70;47.20;;;;;;5107243;28;20054;-78
2023/10/03 01:36:10;;;;;;;9.65;2.15;;;16.70;1.00;;;;;;5104745;28;20044;-78
2023/10/03 01:38:36;;;;;;;2.95;1.65;;;16.80;99.90;;;;;;5085593;28;20082;-78
2023/10/03 01:41:02;;;;;;;7.15;2.65;;;16.90;99.90;;;;;;5104067;28;20509;-78
2023/10/03 01:43:28;;;;;;;3.30;2.00;;;16.80;99.90;;;;;;5107274;28;20043;-78
2023/10/03 01:45:54;;;;;;;3.08;1.85;;;16.90;1.00;;;;;;5076993;28;20044;-78
2023/10/03 01:48:20;;;;;;;2.28;1.17;;;17.00;99.90;;;;;;5087805;28;20055;-78
2023/10/03 01:50:47;;;;;;;5.07;3.15;;;17.00;99.90;;;;;;5090524;28;20042;-77
2023/10/03 01:53:13;;;;;;;3.88;1.98;;;17.00;99.90;;;;;;5090284;28;20054;-78
2023/10/03 01:55:38;;;;;;;8.40;3.78;;;17.10;1.00;;;;;;5080860;28;20047;-79
2023/10/03 01:58:05;;;;;;;3.22;1.75;;;17.10;1.00;;;;;;5089496;28;20043;-77
2023/10/03 02:00:36;;;;;;;5.18;2.70;;;17.10;99.90;;;;;;5087413;28;20090;-78
2023/10/03 02:03:05;;;;;;;3.03;2.17;;;17.20;82.60;;;;;;5085967;28;20063;-77
2023/10/03 02:05:42;;;;;;;3.30;2.25;;;17.20;1.00;;;;;;5086080;28;20093;-78
2023/10/03 02:08:12;;;;;;;4.80;3.10;;;17.30;99.90;;;;;;5089197;28;20465;-78
2023/10/03 02:10:39;;;;;;;9.52;3.45;;;17.30;99.90;;;;;;5089359;28;20428;-78
2023/10/03 02:13:14;;;;;;;3.70;2.33;;;17.30;99.90;;;;;;5088334;28;20078;-78
2023/10/03 02:16:00;;;;;;;4.90;2.72;;;17.30;99.90;;;;;;5103360;28;20036;-77
2023/10/03 02:18:25;;;;;;;5.22;3.60;;;17.40;1.00;;;;;;5097377;28;20055;-77
2023/10/03 02:20:59;;;;;;;8.85;3.25;;;17.30;72.30;;;;;;5084385;28;20486;-78
2023/10/03 02:23:25;;;;;;;6.22;3.40;;;17.20;99.90;;;;;;5084900;28;20411;-77
2023/10/03 02:25:56;;;;;;;10.05;4.55;;;17.30;26.40;;;;;;5093713;28;20036;-78
2023/10/03 02:28:22;;;;;;;3.97;2.55;;;17.40;1.00;;;;;;5089169;28;20071;-78
2023/10/03 02:30:50;;;;;;;4.00;2.97;;;17.40;1.00;;;;;;5097107;28;20050;-76
2023/10/03 02:33:17;;;;;;;5.72;2.47;;;17.50;99.90;;;;;;5088807;28;20519;-77
2023/10/03 02:35:48;;;;;;;12.50;3.40;;;17.60;99.90;;;;;;5087971;28;20194;-77
2023/10/03 02:38:25;;;;;;;2.50;1.15;;;17.50;99.90;;;;;;5087277;28;20540;-78
2023/10/03 02:40:55;;;;;;;11.80;2.28;;;17.40;99.90;;;;;;5088153;28;20036;-77
2023/10/03 02:43:21;;;;;;;4.53;2.10;;;17.30;99.90;;;;;;5078757;28;20541;-77
2023/10/03 02:45:47;;;;;;;2.67;2.25;;;17.30;99.90;;;;;;5087831;28;20436;-77
2023/10/03 02:48:16;;;;;;;3.15;1.92;;;17.40;99.90;;;;;;5096328;28;20036;-77
2023/10/03 02:50:42;;;;;;;2.75;1.63;;;17.30;99.90;;;;;;5102421;28;20176;-78
2023/10/03 02:53:12;;;;;;;2.58;1.73;;;17.30;99.90;;;;;;5102230;28;20115;-78
2023/10/03 02:55:37;;;;;;;2.67;1.80;;;17.40;99.90;;;;;;5104272;28;20429;-78
2023/10/03 02:58:03;;;;;;;3.30;2.25;;;17.20;99.90;;;;;;5108662;28;20176;-78
2023/10/03 03:00:29;;;;;;;4.43;3.42;;;17.20;99.90;;;;;;5104703;28;20035;-78
2023/10/03 03:02:56;;;;;;;4.32;2.63;;;17.20;1.00;;;;;;5100470;28;20126;-78
2023/10/03 03:05:22;;;;;;;4.63;2.83;;;17.20;1.00;;;;;;5102162;28;20044;-77
2023/10/03 03:07:49;;;;;;;7.13;3.88;;;17.10;1.00;;;;;;5111406;28;20047;-77
2023/10/03 03:10:18;;;;;;;5.72;2.67;;;17.30;99.90;;;;;;5103833;28;20040;-77
2023/10/03 03:12:48;;;;;;;8.73;3.53;;;17.30;99.90;;;;;;5104213;28;20047;-77
2023/10/03 03:15:27;;;;;;;3.88;2.25;;;17.40;99.90;;;;;;5101945;28;20480;-77
2023/10/03 03:17:53;;;;;;;2.83;1.98;;;17.40;99.90;;;;;;5103592;28;20131;-78
2023/10/03 03:20:36;;;;;;;5.03;2.75;;;17.40;99.90;;;;;;5104225;28;20042;-77
2023/10/03 03:23:03;;;;;;;3.05;1.88;;;17.40;99.90;;;;;;5097013;28;20061;-79
2023/10/03 03:25:36;;;;;;;3.85;1.50;;;17.40;99.90;;;;;;5101258;28;20041;-78
2023/10/03 03:28:13;;;;;;;1.58;1.23;;;17.30;99.90;;;;;;5103454;28;20097;-77
2023/10/03 03:30:54;;;;;;;4.72;2.22;;;17.30;99.90;;;;;;5108003;28;20088;-77
2023/10/03 03:33:20;;;;;;;7.88;2.88;;;17.30;99.90;;;;;;5096249;28;20504;-78
2023/10/03 03:35:49;;;;;;;7.45;4.07;;;17.40;99.90;;;;;;5104699;28;20073;-78
2023/10/03 03:38:15;;;;;;;8.20;3.10;;;17.40;99.90;;;;;;5110989;28;20038;-78
2023/10/03 03:40:46;;;;;;;1.88;1.48;;;17.40;99.90;;;;;;5101862;28;20459;-78
2023/10/03 03:43:13;;;;;;;2.38;1.85;;;17.40;99.90;;;;;;5099961;28;20078;-78
2023/10/03 03:45:40;;;;;;;3.50;1.80;;;17.50;99.90;;;;;;5078611;28;20093;-78
2023/10/03 03:48:06;;;;;;;7.63;2.60;;;17.50;99.90;;;;;;5090353;28;20088;-77
2023/10/03 03:50:32;;;;;;;5.57;2.05;;;17.50;99.90;;;;;;5101413;28;20075;-78
2023/10/03 03:53:02;;;;;;;4.22;2.70;;;17.50;99.90;;;;;;5100057;28;20040;-78
2023/10/03 03:55:29;;;;;;;2.20;1.60;;;17.50;99.90;;;;;;5084802;28;20140;-77
2023/10/03 03:58:05;;;;;;;5.55;3.60;;;17.50;99.90;;;;;;5103640;28;20031;-77
2023/10/03 04:00:31;;;;;;;1.75;1.17;;;17.70;99.90;;;;;;5104439;28;20132;-79
2023/10/03 04:02:57;;;;;;;4.07;2.22;;;17.80;96.80;;;;;;5104302;28;20065;-78
2023/10/03 04:05:27;;;;;;;1.20;1.08;;;17.80;10.80;;;;;;5097165;28;20044;-77
2023/10/03 04:07:54;;;;;;;2.03;1.70;;;17.80;1.00;;;;;;5099951;28;20048;-79
2023/10/03 04:10:21;;;;;;;1.98;1.42;;;17.70;1.00;;;;;;5104853;28;20047;-78
2023/10/03 04:12:49;;;;;;;3.20;2.08;;;17.70;18.80;;;;;;5106292;28;20052;-78
2023/10/03 04:15:15;;;;;;;2.97;2.58;;;17.70;1.00;;;;;;5094979;28;20046;-79
2023/10/03 04:17:51;;;;;;;2.70;2.50;;;17.70;1.00;;;;;;5097158;28;20047;-77
2023/10/03 04:20:30;;;;;;;2.65;2.28;;;17.60;8.70;;;;;;5097935;28;20032;-78
2023/10/03 04:22:58;;;;;;;2.20;1.70;;;17.60;16.50;;;;;;5088136;28;20055;-77
2023/10/03 04:25:24;;;;;;;1.20;1.02;;;17.60;47.10;;;;;;5089758;28;20044;-79
2023/10/03 04:27:52;;;;;;;4.93;2.33;;;17.60;75.60;;;;;;5109224;28;20067;-77
2023/10/03 04:30:19;;;;;;;1.17;0.88;;;17.70;41.50;;;;;;5106685;28;20559;-77
2023/10/03 04:32:47;;;;;;;3.33;2.63;;;17.70;81.70;;;;;;5091655;28;20791;-78
2023/10/03 04:35:14;;;;;;;4.82;2.60;;;17.80;76.90;;;;;;5115400;28;20040;-78
2023/10/03 04:37:43;;;;;;;2.15;1.75;;;17.80;75.40;;;;;;5108707;28;20055;-78
2023/10/03 04:40:15;;;;;;;5.97;1.80;;;17.80;90.80;;;;;;5107713;28;20043;-77
2023/10/03 04:42:44;;;;;;;13.15;3.92;;;17.90;93.10;;;;;;5097350;28;20051;-77
2023/10/03 04:45:11;;;;;;;6.80;2.58;;;18.00;21.70;;;;;;5108353;28;20054;-77
2023/10/03 04:47:37;;;;;;;1.23;1.13;;;18.00;8.20;;;;;;5096530;28;20044;-77
2023/10/03 04:50:03;;;;;;;9.75;2.97;;;18.10;1.00;;;;;;5104708;28;20036;-78
2023/10/03 04:52:29;;;;;;;3.63;1.65;;;18.20;1.00;;;;;;5105332;28;20547;-79
2023/10/03 04:54:55;;;;;;;2.72;2.38;;;18.30;1.00;;;;;;5115461;28;20063;-77
2023/10/03 04:57:21;;;;;;;3.17;2.10;;;18.40;1.00;;;;;;5108875;28;20469;-78
2023/10/03 04:59:47;;;;;;;4.40;2.97;;;18.40;1.00;;;;;;5102615;28;20111;-77
2023/10/03 05:02:13;;;;;;;2.95;2.08;;;18.50;1.00;;;;;;5108252;28;20039;-78
2023/10/03 05:04:40;;;;;;;15.02;2.75;;;18.50;1.00;;;;;;5104437;28;20084;-77
2023/10/03 05:07:06;;;;;;;6.20;1.92;;;18.60;1.00;;;;;;5106455;28;20071;-78
2023/10/03 05:09:33;;;;;;;4.35;2.20;;;18.60;1.00;;;;;;5101980;28;20136;-77
2023/10/03 05:11:58;;;;;;;1.65;1.33;;;18.60;1.00;;;;;;5103092;28;20056;-78
2023/10/03 05:14:24;;;;;;;2.80;1.23;;;18.50;1.00;;;;;;5101964;28;20050;-77
2023/10/03 05:16:50;;;;;;;4.88;1.30;;;18.60;1.00;;;;;;5108091;28;20039;-80
2023/10/03 05:19:21;;;;;;;4.68;1.40;;;18.60;1.00;;;;;;5107074;28;20074;-77
2023/10/03 05:21:47;;;;;;;5.82;2.25;;;18.60;1.00;;;;;;5106401;28;20052;-77
2023/10/03 05:24:15;;;;;;;4.28;2.22;;;18.60;1.00;;;;;;5110384;28;20398;-78
2023/10/03 05:26:41;;;;;;;2.60;1.85;;;18.70;1.00;;;;;;5114052;28;20057;-77
2023/10/03 05:29:07;;;;;;;2.33;1.08;;;18.70;1.00;;;;;;5106926;28;20110;-78
2023/10/03 05:31:40;;;;;;;2.05;1.38;;;18.70;1.00;;;;;;5099414;28;20043;-78
2023/10/03 05:34:10;;;;;;;3.67;1.92;;;18.80;1.00;;;;;;5074928;28;20463;-77
2023/10/03 05:36:35;;;;;;;1.55;0.88;;;18.90;1.00;;;;;;5098942;28;20078;-78
2023/10/03 05:39:02;;;;;;;5.80;3.25;;;18.90;1.00;;;;;;5093172;28;20434;-79
2023/10/03 05:41:28;;;;;;;4.28;1.52;;;18.90;19.80;;;;;;5102808;28;20110;-78
2023/10/03 05:43:54;;;;;;;1.08;0.75;;;18.90;82.00;;;;;;5099395;28;20450;-78
2023/10/03 05:46:20;;;;;;;1.60;0.68;;;18.90;99.90;;;;;;5083893;28;20154;-78
2023/10/03 05:48:46;;;;;;;5.75;2.85;;;19.00;99.90;;;;;;5086499;28;20050;-79
2023/10/03 05:51:12;;;;;;;2.03;1.30;;;19.10;99.90;;;;;;5097366;28;20039;-78
2023/10/03 05:53:40;;;;;;;2.70;1.95;;;19.20;99.90;;;;;;5102160;28;20531;-78
2023/10/03 05:56:06;;;;;;;6.38;2.80;;;19.10;99.90;;;;;;5109338;28;20044;-78
2023/10/03 05:58:32;;;;;;;4.18;1.05;;;19.20;99.90;;;;;;5088217;28;20159;-78
2023/10/03 06:00:59;;;;;;;1.70;1.02;;;19.20;99.90;;;;;;5108932;28;20512;-78
2023/10/03 06:03:25;;;;;;;5.22;2.33;;;19.20;99.90;;;;;;5106759;28;20389;-79
2023/10/03 06:05:51;;;;;;;3.85;0.98;;;19.20;99.90;;;;;;5102086;28;20400;-78
2023/10/03 06:08:17;;;;;;;1.92;1.60;;;19.20;99.90;;;;;;5104705;28;20036;-78
2023/10/03 06:10:43;;;;;;;2.78;1.70;;;19.20;1.00;;;;;;5090152;28;20548;-79
2023/10/03 06:13:11;;;;;;;1.58;1.25;;;19.20;1.00;;;;;;5084303;28;20047;-78
2023/10/03 06:15:43;;;;;;;1.50;1.40;;;19.20;1.00;;;;;;5057940;28;20109;-78
2023/10/03 06:18:09;;;;;;;1.85;1.48;;;19.30;1.00;;;;;;5078244;28;20046;-78
2023/10/03 06:20:35;;;;;;;1.05;0.80;;;19.30;99.90;;;;;;5082972;28;20044;-78
2023/10/03 06:23:02;;;;;;;2.03;1.42;;;19.30;99.90;;;;;;5084459;28;20462;-78
2023/10/03 06:25:29;;;;;;;4.43;2.28;;;19.30;99.90;;;;;;5086437;28;20048;-78
2023/10/03 06:27:54;;;;;;;2.95;1.63;;;19.30;99.90;;;;;;5081872;28;20101;-78
2023/10/03 06:30:20;;;;;;;2.20;1.67;;;19.30;99.90;;;;;;5077781;28;20040;-78
2023/10/03 06:32:45;;;;;;;3.88;1.92;;;19.30;99.90;;;;;;5081989;28;20101;-79
2023/10/03 06:35:12;;;;;;;2.03;0.95;;;19.30;99.90;;;;;;5088087;28;20044;-78
2023/10/03 06:37:38;;;;;;;3.20;1.77;;;19.20;99.90;;;;;;5063162;28;20074;-78
2023/10/03 06:40:08;;;;;;;3.50;0.45;;;19.30;99.90;;;;;;5065803;28;20504;-78
2023/10/03 06:42:34;;;;;;;1.83;1.25;;;19.20;89.30;;;;;;5098624;28;20445;-78
2023/10/03 06:45:01;;;;;;;3.78;2.95;;;19.20;83.50;;;;;;5101323;28;20114;-78
2023/10/03 06:47:27;;;;;;;2.05;1.23;;;19.20;86.10;;;;;;5105394;28;20036;-78
2023/10/03 06:49:52;;;;;;;1.08;0.98;;;19.20;1.00;;;;;;5098455;28;20040;-77
2023/10/03 06:52:18;;;;;;;1.88;1.77;;;19.20;1.00;;;;;;5084769;28;20051;-78
2023/10/03 06:54:50;;;;;;;1.20;0.68;;;19.20;1.00;;;;;;5070658;27;20405;-79
2023/10/03 06:57:16;;;;;;;4.78;1.95;;;19.20;1.00;;;;;;5069696;28;20078;-78
2023/10/03 06:59:41;;;;;;;1.15;1.05;;;19.20;1.00;;;;;;5069865;28;20166;-79
2023/10/03 07:02:08;;;;;;;0.95;0.70;;;19.20;1.00;;;;;;5078267;28;20036;-78
2023/10/03 07:04:34;;;;;;;1.23;0.73;;;19.20;1.00;;;;;;5077804;28;20400;-78
2023/10/03 07:06:59;;;;;;;2.15;1.77;;;19.20;1.00;;;;;;5068074;28;20044;-78
2023/10/03 07:09:25;;;;;;;0.30;0.30;;;19.20;1.00;;;;;;5068690;28;20485;-78
2023/10/03 07:11:52;;;;;;;1.65;0.52;;;19.20;1.00;;;;;;5069436;28;20170;-78
2023/10/03 07:14:18;;;;;;;0.77;0.77;;;19.10;1.00;;;;;;5067362;28;20459;-78
2023/10/03 07:16:48;;;;;;;0.95;0.68;;;19.10;1.00;;;;;;5066550;28;20124;-77
2023/10/03 07:19:14;;;;;;;0.20;0.20;;;18.80;30.50;;;;;;5066752;28;20083;-77
2023/10/03 07:21:42;;;;;;;0.45;0.45;;;18.50;99.90;;;;;;5066609;28;20124;-78
2023/10/03 07:24:08;;;;;;;3.55;1.52;;;18.30;99.90;;;;;;5066254;28;20036;-77
2023/10/03 07:26:34;;;;;;;2.20;1.17;;;18.20;99.90;;;;;;5064790;28;20091;-78
2023/10/03 07:29:01;;;;;;;1.10;0.55;;;18.10;1.00;;;;;;5046378;28;20037;-78
2023/10/03 07:31:29;;;;;;;1.08;0.98;;;18.10;99.90;;;;;;5045320;28;20654;-78
2023/10/03 07:33:56;;;;;;;1.75;0.47;;;18.20;99.90;;;;;;5055713;28;20045;-78
2023/10/03 07:36:22;;;;;;;0.45;0.35;;;18.20;99.90;;;;;;5056256;28;20052;-77
2023/10/03 07:38:48;;;;;;;0.38;0.38;;;18.30;99.90;;;;;;5054350;28;20119;-77
2023/10/03 07:41:15;;;;;;;0.38;0.10;;;18.30;99.90;;;;;;5063208;28;20506;-77
2023/10/03 07:43:41;;;;;;;11.68;1.30;;;18.30;99.90;;;;;;5068489;28;20083;-77
2023/10/03 07:46:07;;;;;;;0.70;0.60;;;18.30;97.10;;;;;;5068455;28;20064;-77
2023/10/03 07:48:33;;;;;;;0.32;0.32;;;18.30;97.70;;;;;;5069172;28;20519;-77
2023/10/03 07:50:59;;;;;;;4.97;1.02;;;18.10;99.90;;;;;;5068757;28;20072;-77
2023/10/03 07:53:29;;;;;;;1.17;1.08;;;18.10;1.00;;;;;;5070428;28;20049;-79
2023/10/03 07:55:56;;;;;;;6.35;2.63;;;18.10;99.90;;;;;;5071623;28;20103;-79
2023/10/03 07:58:22;;;;;;;6.32;0.60;;;17.50;99.90;;;;;;5068083;28;20094;-78
2023/10/03 08:00:49;;;;;;;0.38;0.32;;;17.30;99.90;;;;;;5068481;28;20041;-78
2023/10/03 08:03:15;;;;;;;3.05;2.28;;;17.30;99.90;;;;;;5067235;28;20091;-79
2023/10/03 08:05:41;;;;;;;0.35;0.30;;;17.20;1.00;;;;;;5058533;28;20041;-78
2023/10/03 08:08:07;;;;;;;0.50;0.43;;;17.20;99.90;;;;;;5054262;28;20052;-78
2023/10/03 08:10:33;;;;;;;0.20;0.20;;;17.20;99.90;;;;;;5053641;28;20051;-78
2023/10/03 08:12:59;;;;;;;0.28;0.28;;;17.10;99.90;;;;;;5054690;28;20049;-78
2023/10/03 08:15:31;;;;;;;0.43;0.40;;;17.10;99.90;;;;;;5053687;28;20037;-79
2023/10/03 08:17:58;;;;;;;0.88;0.75;;;17.20;99.90;;;;;;5053612;28;20109;-78
2023/10/03 08:20:25;;;;;;;1.30;0.70;;;17.10;99.70;;;;;;5053128;28;20447;-78
2023/10/03 08:22:51;;;;;;;0.52;0.52;;;17.00;99.90;;;;;;5052586;28;20033;-78
2023/10/03 08:25:22;;;;;;;0.65;0.45;;;17.00;99.90;;;;;;5052930;28;20055;-78
2023/10/03 08:27:49;;;;;;;0.90;0.63;;;16.90;35.60;;;;;;5052317;28;20150;-78
2023/10/03 08:30:29;;;;;;;0.15;0.15;;;17.30;99.90;;;;;;5051314;28;20045;-78
2023/10/03 08:33:01;;;;;;;0.63;0.50;;;16.80;99.90;;;;;;5051915;28;20052;-77
2023/10/03 08:35:35;;;;;;;0.43;0.43;;;16.60;79.90;;;;;;5052229;28;20085;-77
2023/10/03 08:38:06;;;;;;;2.35;0.52;;;16.50;24.00;;;;;;5051693;28;20041;-77
2023/10/03 08:40:36;;;;;;;0.10;0.10;;;16.40;27.70;;;;;;5052415;28;20056;-78
2023/10/03 08:43:07;;;;;;;0.10;0.10;;;16.30;1.00;;;;;;5051765;28;20037;-77
2023/10/03 08:45:39;;;;;;;0.75;0.52;;;16.30;1.00;;;;;;5051852;28;20128;-77
2023/10/03 08:48:08;;;;;;;0.57;0.55;;;16.40;71.20;;;;;;5051513;28;20384;-77
2023/10/03 08:50:46;;;;;;;12.88;0.45;;;16.30;99.90;;;;;;5051958;28;20130;-77
2023/10/03 08:53:16;;;;;;;1.00;0.25;;;16.40;99.90;;;;;;5051340;28;20065;-78
2023/10/03 08:55:45;;;;;;;1.65;0.20;;;16.40;2.60;;;;;;5050491;28;20109;-77
2023/10/03 08:58:14;;;;;;;0.05;0.05;;;16.40;92.30;;;;;;5051604;28;20045;-78
2023/10/03 09:00:49;;;;;;;0.00;0.00;;;16.40;1.00;;;;;;5052300;28;20071;-77
2023/10/03 09:03:18;;;;;;;0.00;0.00;;;16.30;36.50;;;;;;5051252;28;20045;-78
2023/10/03 09:05:45;;;;;;;0.00;0.00;;;16.40;99.90;;;;;;5051309;28;20089;-77
2023/10/03 09:08:15;;;;;;;0.00;0.00;;;16.60;99.90;;;;;;5051262;28;20053;-77
2023/10/03 09:10:52;;;;;;;0.15;0.13;;;16.70;99.90;;;;;;5051115;28;20045;-77
2023/10/03 09:13:23;;;;;;;0.00;0.00;;;16.80;99.90;;;;;;5051030;28;20051;-77
2023/10/03 09:16:00;;;;;;;6.03;1.02;;;16.80;1.00;;;;;;5051766;28;20045;-77
2023/10/03 09:18:30;;;;;;;0.00;0.00;;;16.80;99.90;;;;;;5047596;28;20037;-78
2023/10/03 09:20:59;;;;;;;0.15;0.15;;;16.70;99.90;;;;;;5051374;28;20483;-78
2023/10/03 09:23:27;;;;;;;0.00;0.00;;;16.50;1.00;;;;;;5053005;28;20033;-79
2023/10/03 09:25:56;;;;;;;2.85;0.70;;;16.00;1.00;;;;;;5048236;28;20383;-79
2023/10/03 09:28:35;;;;;;;0.15;0.08;;;15.70;1.00;;;;;;5046746;28;20053;-79
2023/10/03 09:31:08;;;;;;;0.00;0.00;;;15.40;99.90;;;;;;5038324;28;20064;-78
2023/10/03 09:33:38;;;;;;;0.00;0.00;;;15.30;99.90;;;;;;5051158;28;20045;-78
2023/10/03 09:36:04;;;;;;;0.30;0.30;;;15.10;99.90;;;;;;5035223;28;20056;-77
2023/10/03 09:38:47;;;;;;;0.10;0.00;;;15.00;99.90;;;;;;5031901;28;20049;-78
2023/10/03 09:41:17;;;;;;;0.52;0.20;;;15.00;1.00;;;;;;5033414;28;20049;-78
2023/10/03 09:43:49;;;;;;;0.00;0.00;;;14.80;99.90;;;;;;5035397;28;20045;-78
2023/10/03 09:46:23;;;;;;;0.00;0.00;;;14.80;1.00;;;;;;5033368;28;20041;-78
2023/10/03 09:48:53;;;;;;;0.00;0.00;;;15.00;1.00;;;;;;5035319;28;20037;-78
2023/10/03 09:52:09;;;;;;;0.05;0.05;;;15.00;1.00;;;;;;5027725;28;20037;-78
2023/10/03 09:54:13;;;;;;;0.00;0.00;;;14.90;1.00;;;;;;5031780;28;20053;-78
2023/10/03 09:56:40;;;;;;;0.05;0.05;;;14.90;99.90;;;;;;5044705;28;20040;-78
2023/10/03 09:59:08;;;;;;;0.00;0.00;;;14.70;99.90;;;;;;5050786;28;20052;-78
2023/10/03 10:01:35;;;;;;;0.00;0.00;;;14.80;99.90;;;;;;5050388;28;20444;-78
2023/10/03 10:04:03;;;;;;;0.00;0.00;;;14.70;92.10;;;;;;5050767;28;20044;-78
2023/10/03 10:06:40;;;;;;;0.57;0.57;;;14.70;1.00;;;;;;5049925;28;20051;-78
2023/10/03 10:09:27;;;;;;;0.00;0.00;;;14.70;99.90;;;;;;5050509;28;20140;-78
2023/10/03 10:12:12;;;;;;;0.20;0.20;;;14.80;1.00;;;;;;5042510;28;20435;-78
2023/10/03 10:15:01;;;;;;;0.10;0.10;;;14.80;99.90;;;;;;5047845;28;20051;-78
2023/10/03 10:17:57;;;;;;;0.00;0.00;;;14.80;99.90;;;;;;5048249;28;20045;-78
2023/10/03 10:20:33;;;;;;;0.13;0.10;;;14.90;99.90;;;;;;5045007;28;20452;-78
2023/10/03 10:23:02;;;;;;;0.00;0.00;;;15.10;99.90;;;;;;5048710;28;20505;-78
2023/10/03 10:25:30;;;;;;;0.00;0.00;;;16.00;1.00;;;;;;5048729;28;20049;-78
2023/10/03 10:28:07;;;;;;;0.00;0.00;;;14.70;30.20;;;;;;5049967;28;20048;-77
2023/10/03 10:30:39;;;;;;;0.00;0.00;;;14.50;99.90;;;;;;5049850;28;20037;-77
2023/10/03 10:33:23;;;;;;;0.00;0.00;;;14.50;1.00;;;;;;5048658;28;20133;-78
2023/10/03 10:35:56;;;;;;;0.00;0.00;;;14.70;99.90;;;;;;5049882;28;20045;-78
2023/10/03 10:38:42;;;;;;;0.00;0.00;;;14.80;1.00;;;;;;5050320;28;20041;-77
2023/10/03 10:41:22;;;;;;;0.32;0.30;;;14.90;1.00;;;;;;5036541;28;20053;-78
2023/10/03 10:44:06;;;;;;;0.00;0.00;;;15.00;27.10;;;;;;5050251;28;20059;-78
2023/10/03 10:46:38;;;;;;;0.00;0.00;;;14.90;99.90;;;;;;5049625;28;20128;-78
2023/10/03 10:49:06;;;;;;;0.65;0.40;;;14.90;73.80;;;;;;5048820;28;20052;-79
2023/10/03 10:51:36;;;;;;;0.10;0.10;;;14.90;51.70;;;;;;5049999;28;20037;-78
2023/10/03 10:54:04;;;;;;;0.10;0.10;;;15.10;99.90;;;;;;5050081;28;20057;-78
2023/10/03 10:56:32;;;;;;;0.10;0.03;;;15.30;99.90;;;;;;5050257;28;20493;-78
2023/10/03 10:59:04;;;;;;;0.17;0.10;;;15.30;99.90;;;;;;5050712;28;20044;-79
2023/10/03 11:01:37;;;;;;;1.55;0.43;;;15.30;1.00;;;;;;5042142;28;20045;-78
2023/10/03 11:04:03;;;;;;;0.00;0.00;;;15.40;1.00;;;;;;5049592;28;20514;-78
2023/10/03 11:06:29;;;;;;;0.00;0.00;;;15.70;99.90;;;;;;5050093;28;20029;-78
2023/10/03 11:08:54;;;;;;;0.00;0.00;;;16.00;1.00;;;;;;5050122;28;20098;-78
2023/10/03 11:11:20;;;;;;;0.55;0.25;;;15.80;1.00;;;;;;5050725;28;20048;-78
2023/10/03 11:13:50;;;;;;;0.00;0.00;;;15.70;99.90;;;;;;5051991;28;20056;-79
2023/10/03 11:16:23;;;;;;;0.00;0.00;;;15.60;99.90;;;;;;5052319;28;20041;-79
2023/10/03 11:18:51;;;;;;;1.95;0.55;;;15.60;41.70;;;;;;5045845;28;20095;-79
2023/10/03 11:21:17;;;;;;;0.00;0.00;;;15.40;99.90;;;;;;5052340;28;20053;-79
2023/10/03 11:24:10;;;;;;;0.00;0.00;;;15.10;90.20;;;;;;5052677;28;20494;-79
2023/10/03 11:26:45;;;;;;;0.47;0.45;;;14.80;98.00;;;;;;5049698;28;20478;-78
2023/10/03 11:29:11;;;;;;;0.00;0.00;;;14.40;1.00;;;;;;5052258;28;20049;-78
2023/10/03 11:31:42;;;;;;;0.25;0.20;;;14.40;1.00;;;;;;5051226;28;20045;-78
2023/10/03 11:34:08;;;;;;;0.20;0.20;;;14.10;1.00;;;;;;5050585;28;20047;-78
2023/10/03 11:36:43;;;;;;;0.45;0.45;;;14.00;99.90;;;;;;5051392;28;20394;-79
2023/10/03 11:39:11;;;;;;;0.05;0.00;;;14.10;99.90;;;;;;5043535;28;20059;-78
2023/10/03 11:41:39;;;;;;;0.00;0.00;;;14.20;99.90;;;;;;5054389;28;20037;-78
2023/10/03 11:44:21;;;;;;;0.00;0.00;;;14.40;99.90;;;;;;5053828;28;20102;-78
2023/10/03 11:46:47;;;;;;;0.10;0.10;;;14.40;99.90;;;;;;5055120;28;20045;-78
2023/10/03 11:49:15;;;;;;;0.38;0.35;;;14.20;99.90;;;;;;5038563;28;20103;-78
2023/10/03 11:51:43;;;;;;;0.10;0.10;;;14.20;99.90;;;;;;5054677;28;20514;-79
2023/10/03 11:54:10;;;;;;;0.00;0.00;;;14.20;1.00;;;;;;5055665;28;20417;-79
2023/10/03 11:56:43;;;;;;;0.00;0.00;;;14.30;1.00;;;;;;5056016;28;20047;-79
2023/10/03 11:59:09;;;;;;;0.00;0.00;;;14.30;99.90;;;;;;5056660;28;20083;-79
2023/10/03 12:01:35;;;;;;;0.10;0.10;;;14.40;99.90;;;;;;5055040;28;20151;-78
2023/10/03 12:04:02;;;;;;;0.10;0.10;;;14.80;93.60;;;;;;5055540;28;20133;-78
2023/10/03 12:06:27;;;;;;;0.25;0.25;;;14.50;99.90;;;;;;5058623;28;20045;-79
2023/10/03 12:08:53;;;;;;;0.75;0.47;;;14.50;99.90;;;;;;5056008;28;20094;-78
2023/10/03 12:11:20;;;;;;;0.17;0.17;;;14.50;1.00;;;;;;5055571;28;20039;-78
2023/10/03 12:13:45;;;;;;;1.45;1.15;;;14.50;99.90;;;;;;5056405;28;20064;-78
2023/10/03 12:16:11;;;;;;;0.15;0.15;;;14.70;99.90;;;;;;5055544;28;20037;-79
2023/10/03 12:18:37;;;;;;;0.20;0.17;;;14.70;99.90;;;;;;5054571;28;20108;-79
2023/10/03 12:21:04;;;;;;;0.00;0.00;;;14.70;59.70;;;;;;5057205;28;20108;-79
2023/10/03 12:23:30;;;;;;;0.22;0.20;;;14.70;9.10;;;;;;5056672;28;20132;-80
2023/10/03 12:25:56;;;;;;;2.08;1.23;;;14.50;1.00;;;;;;5057756;28;20076;-80
2023/10/03 12:28:22;;;;;;;0.43;0.43;;;14.50;99.90;;;;;;5057858;28;20454;-80
2023/10/03 12:30:50;;;;;;;0.70;0.30;;;14.50;66.10;;;;;;5060597;28;20072;-80
2023/10/03 12:33:16;;;;;;;0.77;0.77;;;14.40;40.60;;;;;;5060259;28;20051;-79
2023/10/03 12:35:42;;;;;;;0.47;0.22;;;14.30;99.90;;;;;;5059892;28;20048;-79
2023/10/03 12:38:10;;;;;;;9.40;2.25;;;14.20;1.00;;;;;;5060623;28;20056;-79
2023/10/03 12:40:36;;;;;;;1.98;1.15;;;14.10;99.70;;;;;;5059439;28;20049;-79
2023/10/03 12:43:01;;;;;;;0.47;0.38;;;14.00;99.90;;;;;;5059436;28;20597;-79
2023/10/03 12:45:28;;;;;;;0.10;0.10;;;14.00;1.00;;;;;;5057171;28;20435;-78
2023/10/03 12:47:54;;;;;;;0.95;0.52;;;14.00;1.00;;;;;;5058531;28;20112;-79
2023/10/03 12:50:23;;;;;;;0.22;0.10;;;14.00;1.00;;;;;;5057459;28;20094;-79
2023/10/03 12:53:05;;;;;;;0.00;0.00;;;14.10;1.00;;;;;;5057520;28;20061;-80
2023/10/03 12:55:40;;;;;;;0.35;0.35;;;14.50;66.30;;;;;;5059183;28;20048;-78
2023/10/03 12:58:06;;;;;;;0.25;0.20;;;14.30;1.00;;;;;;5057253;28;20398;-80
2023/10/03 13:00:34;;;;;;;0.10;0.10;;;14.30;1.00;;;;;;5061194;28;20503;-81